Time;durP1;ratioP1;P1;durP2;ratioP2;P2;SDS_P1;SDS_P2;PMS_P1;PMS_P2;Temp;Humidity;BMP_temperature;BMP_pressure;BME280_temperature;BME280_humidity;BME280_pressure;Samples;Min_cycle;Max_cycle;Signal;HPM_P1;HPM_P2
2022/12/16 00:00:09;;;;;;;60.80;33.85;;;;;;;-4.61;90.89;100933.19;4950214;28;20047;-71
2022/12/16 00:02:36;;;;;;;64.70;32.53;;;;;;;-4.53;90.88;100924.03;4950815;28;20060;-71
2022/12/16 00:05:07;;;;;;;60.78;33.65;;;;;;;-4.45;90.95;100924.28;4951229;28;20103;-71
2022/12/16 00:07:34;;;;;;;57.92;32.97;;;;;;;-4.35;91.05;100933.16;4950609;28;20040;-72
2022/12/16 00:10:03;;;;;;;59.13;33.83;;;;;;;-4.26;91.13;100930.00;4949879;28;20150;-71
2022/12/16 00:12:30;;;;;;;61.63;34.08;;;;;;;-4.20;91.15;100927.63;4951217;28;20056;-70
2022/12/16 00:14:57;;;;;;;61.58;33.47;;;;;;;-4.13;90.99;100929.56;4952854;28;20046;-71
2022/12/16 00:17:24;;;;;;;54.08;32.10;;;;;;;-4.07;90.69;100931.47;4953400;28;20095;-71
2022/12/16 00:19:51;;;;;;;57.15;32.45;;;;;;;-4.01;90.74;100926.50;4953116;28;20048;-71
2022/12/16 00:22:18;;;;;;;58.40;31.55;;;;;;;-3.98;90.46;100920.56;4954005;28;20044;-70
2022/12/16 00:24:45;;;;;;;56.20;32.28;;;;;;;-3.95;90.55;100924.09;4954487;28;20059;-70
2022/12/16 00:27:12;;;;;;;53.00;32.90;;;;;;;-3.92;90.45;100925.91;4954792;28;20134;-70
2022/12/16 00:29:39;;;;;;;55.75;31.75;;;;;;;-3.90;90.48;100925.13;4953831;28;20040;-70
2022/12/16 00:32:06;;;;;;;53.42;31.48;;;;;;;-3.87;90.34;100933.78;4954439;28;20052;-70
2022/12/16 00:34:33;;;;;;;54.38;32.25;;;;;;;-3.88;89.98;100935.47;4954168;28;20090;-71
2022/12/16 00:37:00;;;;;;;58.63;33.20;;;;;;;-3.89;90.01;100931.13;4954147;28;20489;-71
2022/12/16 00:39:27;;;;;;;50.30;30.92;;;;;;;-3.86;89.67;100931.25;4952899;28;20072;-71
2022/12/16 00:41:54;;;;;;;54.92;31.83;;;;;;;-3.83;89.71;100939.06;4954686;28;20036;-71
2022/12/16 00:44:22;;;;;;;55.33;32.40;;;;;;;-3.78;89.90;100929.75;4953398;28;20716;-72
2022/12/16 00:46:49;;;;;;;60.70;32.88;;;;;;;-3.74;90.09;100923.00;4952708;28;20055;-72
2022/12/16 00:49:16;;;;;;;57.45;32.38;;;;;;;-3.69;89.83;100936.00;4953823;28;20040;-72
2022/12/16 00:51:43;;;;;;;56.08;32.35;;;;;;;-3.67;89.42;100932.66;4953360;28;20051;-72
2022/12/16 00:54:11;;;;;;;56.55;31.98;;;;;;;-3.65;89.54;100922.41;4954251;28;20048;-72
2022/12/16 00:56:38;;;;;;;54.38;31.23;;;;;;;-3.59;89.63;100925.13;4953662;28;20586;-71
2022/12/16 00:59:06;;;;;;;59.17;33.35;;;;;;;-3.56;89.60;100927.81;4953557;28;20476;-71
2022/12/16 01:01:34;;;;;;;54.90;32.20;;;;;;;-3.53;89.76;100922.75;4953345;28;20502;-70
2022/12/16 01:04:01;;;;;;;57.30;31.98;;;;;;;-3.52;89.66;100928.78;4954022;28;20079;-71
2022/12/16 01:06:30;;;;;;;57.45;30.95;;;;;;;-3.51;89.37;100931.38;4953695;28;20127;-70
2022/12/16 01:09:00;;;;;;;54.40;31.90;;;;;;;-3.53;89.22;100934.75;4953148;28;20047;-70
2022/12/16 01:11:27;;;;;;;57.42;32.22;;;;;;;-3.50;89.41;100921.97;4938567;28;20078;-70
2022/12/16 01:13:54;;;;;;;59.28;33.03;;;;;;;-3.48;89.74;100928.91;4952806;28;20043;-71
2022/12/16 01:16:21;;;;;;;60.72;32.25;;;;;;;-3.43;89.70;100929.03;4948731;28;20095;-70
2022/12/16 01:18:49;;;;;;;62.83;32.90;;;;;;;-3.39;89.83;100935.16;4952098;28;20048;-71
2022/12/16 01:21:16;;;;;;;55.08;31.92;;;;;;;-3.36;89.84;100937.81;4955032;28;20050;-72
2022/12/16 01:23:43;;;;;;;61.53;33.70;;;;;;;-3.32;89.80;100943.09;4952889;28;20103;-71
2022/12/16 01:26:16;;;;;;;56.25;31.85;;;;;;;-3.29;89.81;100939.72;4952798;28;20063;-71
2022/12/16 01:28:47;;;;;;;55.97;33.50;;;;;;;-3.23;89.98;100942.50;4951838;28;20813;-71
2022/12/16 01:31:17;;;;;;;57.63;32.58;;;;;;;-3.19;90.11;100944.31;4953935;28;20099;-72
2022/12/16 01:33:46;;;;;;;57.78;33.42;;;;;;;-3.15;90.11;100946.16;4952475;28;20040;-70
2022/12/16 01:36:13;;;;;;;52.60;31.58;;;;;;;-3.13;90.04;100951.34;4954726;28;20043;-69
2022/12/16 01:38:43;;;;;;;57.80;32.10;;;;;;;-3.09;90.06;100947.13;4952507;28;20040;-68
2022/12/16 01:41:12;;;;;;;59.17;31.92;;;;;;;-3.07;90.10;100958.38;4954005;28;20048;-69
2022/12/16 01:43:41;;;;;;;58.65;32.35;;;;;;;-3.05;89.90;100960.16;4951843;28;20050;-69
2022/12/16 01:46:24;;;;;;;53.88;32.50;;;;;;;-3.02;90.02;100970.56;4938885;28;20051;-69
2022/12/16 01:49:07;;;;;;;55.45;31.08;;;;;;;-3.01;89.94;100966.31;4949924;28;20040;-69
2022/12/16 01:51:37;;;;;;;56.88;31.90;;;;;;;-3.00;89.89;100971.50;4954731;28;20058;-69
2022/12/16 01:54:23;;;;;;;57.35;31.98;;;;;;;-2.93;89.91;100971.66;4952931;28;20035;-69
2022/12/16 01:57:01;;;;;;;53.75;32.00;;;;;;;-2.93;90.12;100977.69;4952900;28;20051;-69
2022/12/16 01:59:34;;;;;;;57.40;31.67;;;;;;;-2.90;89.84;100980.34;4949164;28;20048;-69
2022/12/16 02:02:02;;;;;;;56.53;32.05;;;;;;;-2.87;89.97;100982.16;4951745;28;20117;-69
2022/12/16 02:04:30;;;;;;;56.13;33.10;;;;;;;-2.85;89.90;100976.19;4935303;28;20056;-69
2022/12/16 02:06:59;;;;;;;59.85;33.25;;;;;;;-2.83;89.86;100977.13;4952875;28;20127;-69
2022/12/16 02:09:26;;;;;;;61.75;34.38;;;;;;;-2.82;89.80;100985.72;4951925;28;20039;-69
2022/12/16 02:12:23;;;;;;;60.60;33.38;;;;;;;-2.79;89.80;100983.22;4951965;28;20039;-69
2022/12/16 02:15:17;;;;;;;59.47;34.17;;;;;;;-2.83;89.85;100987.44;4950453;28;20051;-69
2022/12/16 02:17:56;;;;;;;64.35;33.10;;;;;;;-2.82;89.88;100984.03;4950648;28;20071;-69
2022/12/16 02:21:01;;;;;;;66.50;35.83;;;;;;;-2.82;89.87;100984.03;4953090;28;20502;-69
2022/12/16 02:24:08;;;;;;;59.10;33.15;;;;;;;-2.79;90.00;100985.81;4951597;28;20097;-69
2022/12/16 02:27:16;;;;;;;68.07;35.35;;;;;;;-2.79;90.02;100985.81;4951461;28;20056;-70
2022/12/16 02:30:22;;;;;;;65.75;35.53;;;;;;;-2.77;90.05;100997.06;4950867;28;21077;-69
2022/12/16 02:33:13;;;;;;;65.13;34.92;;;;;;;-2.78;90.23;100999.56;4952818;28;20114;-70
2022/12/16 02:35:50;;;;;;;60.78;34.85;;;;;;;-2.75;90.09;100995.41;4952004;28;20051;-70
2022/12/16 02:38:29;;;;;;;67.90;37.30;;;;;;;-2.74;90.32;100988.50;4949162;28;20536;-70
2022/12/16 02:41:11;;;;;;;65.05;35.58;;;;;;;-2.70;90.32;100995.53;4952582;28;20040;-70
2022/12/16 02:44:06;;;;;;;63.85;35.85;;;;;;;-2.67;90.42;100999.06;4951733;28;20071;-71
2022/12/16 02:46:51;;;;;;;66.38;35.28;;;;;;;-2.64;90.27;100995.66;4951713;28;20047;-70
2022/12/16 02:49:21;;;;;;;66.28;35.95;;;;;;;-2.61;90.53;100990.59;4950253;28;20087;-70
2022/12/16 02:51:49;;;;;;;64.88;36.03;;;;;;;-2.57;90.65;100988.97;4943939;28;20092;-70
2022/12/16 02:54:17;;;;;;;63.95;35.17;;;;;;;-2.54;90.55;100995.06;4951042;28;20055;-70
2022/12/16 02:57:08;;;;;;;62.40;35.42;;;;;;;-2.52;90.82;101000.28;4951585;28;20044;-70
2022/12/16 02:59:50;;;;;;;64.97;35.38;;;;;;;-2.53;90.61;101004.56;4951416;28;20048;-70
2022/12/16 03:02:58;;;;;;;67.82;36.75;;;;;;;-2.54;90.59;100996.75;4937576;28;20044;-70
2022/12/16 03:05:39;;;;;;;62.08;35.10;;;;;;;-2.55;90.72;101003.66;4951285;28;20056;-70
2022/12/16 03:08:14;;;;;;;64.03;35.38;;;;;;;-2.53;90.84;101008.84;4951349;28;20040;-70
2022/12/16 03:10:47;;;;;;;62.03;35.10;;;;;;;-2.51;91.16;101005.50;4950211;28;20054;-69
2022/12/16 03:13:19;;;;;;;63.93;35.30;;;;;;;-2.49;91.00;101005.53;4950300;28;20040;-70
2022/12/16 03:15:52;;;;;;;66.65;35.33;;;;;;;-2.47;90.93;101008.13;4946787;28;20055;-69
2022/12/16 03:18:21;;;;;;;66.68;35.55;;;;;;;-2.46;90.75;101004.72;4950962;28;20059;-70
2022/12/16 03:20:56;;;;;;;64.53;35.58;;;;;;;-2.44;90.97;101015.97;4946997;28;20111;-70
2022/12/16 03:23:55;;;;;;;69.75;35.50;;;;;;;-2.45;90.99;101009.94;4952613;28;20103;-70
2022/12/16 03:26:33;;;;;;;66.93;34.85;;;;;;;-2.44;91.10;101010.81;4931352;29;20132;-71
2022/12/16 03:29:14;;;;;;;62.53;35.40;;;;;;;-2.43;91.09;101016.00;4943771;28;20044;-70
2022/12/16 03:32:00;;;;;;;64.72;35.42;;;;;;;-2.41;91.10;101019.50;4952596;28;20043;-70
2022/12/16 03:34:44;;;;;;;63.58;34.55;;;;;;;-2.43;91.11;101009.97;4950044;28;20572;-70
2022/12/16 03:37:13;;;;;;;59.78;33.95;;;;;;;-2.42;91.09;101027.22;4952198;28;20046;-69
2022/12/16 03:39:52;;;;;;;60.28;34.30;;;;;;;-2.38;91.26;101023.84;4950538;28;20040;-68
2022/12/16 03:42:19;;;;;;;60.95;33.47;;;;;;;-2.37;91.19;101023.91;4952020;28;20051;-69
2022/12/16 03:44:48;;;;;;;64.07;35.42;;;;;;;-2.35;91.29;101023.94;4950493;28;20044;-68
2022/12/16 03:47:15;;;;;;;62.92;34.80;;;;;;;-2.36;91.35;101024.78;4951185;28;20040;-68
2022/12/16 03:49:49;;;;;;;64.43;36.75;;;;;;;-2.36;91.37;101035.09;4949896;28;20554;-69
2022/12/16 03:52:16;;;;;;;64.07;34.40;;;;;;;-2.39;91.17;101029.88;4951589;28;20047;-68
2022/12/16 03:54:44;;;;;;;59.58;34.85;;;;;;;-2.41;91.21;101037.56;4951360;28;20044;-70
2022/12/16 03:57:11;;;;;;;61.53;34.97;;;;;;;-2.43;91.09;101034.06;4951503;28;20040;-69
2022/12/16 03:59:42;;;;;;;60.53;35.50;;;;;;;-2.42;91.31;101027.22;4950408;28;20127;-70
2022/12/16 04:02:11;;;;;;;61.83;34.55;;;;;;;-2.37;91.40;101035.94;4952690;28;20047;-70
2022/12/16 04:04:38;;;;;;;62.83;35.15;;;;;;;-2.35;91.47;101042.03;4950199;28;20047;-70
2022/12/16 04:07:23;;;;;;;59.20;34.72;;;;;;;-2.35;91.38;101044.59;4952415;28;20039;-70
2022/12/16 04:09:51;;;;;;;64.03;36.03;;;;;;;-2.36;91.44;101041.16;4950615;28;20051;-70
2022/12/16 04:26:21;;;;;;;60.22;34.17;;;;;;;-2.36;91.44;101064.41;4949649;28;20055;-70
2022/12/16 04:28:48;;;;;;;61.20;34.25;;;;;;;-2.37;91.38;101065.25;4951489;28;20055;-70
2022/12/16 04:31:15;;;;;;;62.35;34.92;;;;;;;-2.38;91.46;101071.22;4951162;28;20119;-70
